Time;durP1;ratioP1;P1;durP2;ratioP2;P2;SDS_P1;SDS_P2;PMS_P1;PMS_P2;Temp;Humidity;BMP_temperature;BMP_pressure;BME280_temperature;BME280_humidity;BME280_pressure;Samples;Min_cycle;Max_cycle;Signal;HPM_P1;HPM_P2
2022/06/05 00:00:43;;;;;;;;;;;17.50;99.90;;;;;;5058448;28;19905;-82
2022/06/05 00:03:22;;;;;;;;;;;17.50;99.90;;;;;;5058137;28;19928;-82
2022/06/05 00:05:57;;;;;;;;;;;17.50;99.90;;;;;;5057952;28;19944;-82
2022/06/05 00:08:32;;;;;;;;;;;17.40;99.90;;;;;;5057684;28;20384;-82
2022/06/05 00:10:58;;;;;;;;;;;17.40;99.90;;;;;;5058067;28;19909;-82
2022/06/05 00:13:43;;;;;;;;;;;17.50;99.90;;;;;;5056514;28;19987;-82
2022/06/05 00:16:10;;;;;;;;;;;17.50;99.90;;;;;;5058163;28;19908;-82
2022/06/05 00:18:37;;;;;;;;;;;17.50;99.90;;;;;;5056266;28;19920;-82
2022/06/05 00:21:04;;;;;;;;;;;17.50;99.90;;;;;;5056427;28;19936;-82
2022/06/05 00:23:30;;;;;;;;;;;17.40;99.90;;;;;;5056257;28;19909;-82
2022/06/05 00:26:05;;;;;;;5.03;1.90;;;17.40;99.90;;;;;;5055963;28;20363;-82
2022/06/05 00:28:37;;;;;;;5.07;2.30;;;17.40;99.90;;;;;;5055527;28;20029;-82
2022/06/05 00:31:26;;;;;;;2.95;1.85;;;17.30;99.90;;;;;;5056840;28;20027;-82
2022/06/05 00:33:51;;;;;;;3.20;1.90;;;17.30;99.90;;;;;;5055628;28;20056;-82
2022/06/05 00:36:23;;;;;;;3.15;2.00;;;17.20;99.90;;;;;;5055669;28;20049;-82
2022/06/05 00:39:27;;;;;;;3.42;2.17;;;17.00;99.90;;;;;;5055639;28;20497;-82
2022/06/05 00:42:06;;;;;;;5.35;2.10;;;16.80;99.90;;;;;;5015442;28;20029;-82
2022/06/05 00:44:37;;;;;;;4.82;2.45;;;16.70;99.90;;;;;;5056962;28;20017;-82
2022/06/05 00:47:04;;;;;;;3.50;2.22;;;16.70;99.90;;;;;;5055403;28;20132;-82
2022/06/05 00:49:39;;;;;;;3.85;2.28;;;16.60;99.90;;;;;;5056481;28;20025;-82
2022/06/05 00:52:07;;;;;;;6.53;2.47;;;16.50;99.90;;;;;;5055394;28;20033;-82
2022/06/05 00:54:33;;;;;;;4.78;2.10;;;16.50;99.90;;;;;;5055275;28;20071;-82
2022/06/05 00:56:59;;;;;;;5.40;2.58;;;16.50;99.90;;;;;;5056673;28;20033;-82
2022/06/05 00:59:26;;;;;;;4.95;2.72;;;16.60;99.90;;;;;;5056412;28;20029;-82
2022/06/05 01:01:52;;;;;;;4.53;2.55;;;16.60;99.90;;;;;;5055892;28;20041;-83
2022/06/05 01:04:19;;;;;;;4.28;2.45;;;16.60;99.90;;;;;;5060086;28;20032;-82
2022/06/05 01:06:45;;;;;;;4.65;2.13;;;16.70;99.90;;;;;;5059328;28;20091;-82
2022/06/05 01:09:11;;;;;;;3.05;1.92;;;16.70;99.90;;;;;;5056818;28;20473;-82
2022/06/05 01:12:06;;;;;;;4.75;2.60;;;16.70;99.90;;;;;;5053534;28;20032;-82
2022/06/05 01:15:06;;;;;;;5.30;2.40;;;16.70;99.90;;;;;;5041318;28;20029;-82
2022/06/05 01:17:34;;;;;;;5.70;2.40;;;16.60;99.90;;;;;;5055883;28;20385;-82
2022/06/05 01:20:05;;;;;;;4.53;2.10;;;16.60;99.90;;;;;;5055867;28;20259;-82
2022/06/05 01:22:56;;;;;;;5.97;2.80;;;16.60;99.90;;;;;;5054666;28;20116;-82
2022/06/05 01:25:49;;;;;;;5.72;2.40;;;16.60;99.90;;;;;;5056114;28;20029;-82
2022/06/05 01:28:22;;;;;;;6.13;2.30;;;16.40;99.90;;;;;;5054962;28;20381;-82
2022/06/05 01:31:18;;;;;;;5.72;2.55;;;16.40;99.90;;;;;;5055553;28;20029;-83
2022/06/05 01:34:04;;;;;;;5.53;2.63;;;16.20;99.90;;;;;;5055126;28;20465;-82
2022/06/05 01:36:45;;;;;;;3.17;1.80;;;16.10;99.90;;;;;;5054948;28;20124;-82
2022/06/05 01:39:21;;;;;;;4.47;2.30;;;16.00;99.90;;;;;;5054945;28;20021;-82
2022/06/05 01:41:52;;;;;;;7.93;2.40;;;15.90;99.90;;;;;;5053995;28;20481;-82
2022/06/05 01:44:46;;;;;;;6.47;2.90;;;15.70;99.90;;;;;;5054097;28;20037;-82
2022/06/05 01:47:26;;;;;;;10.35;4.70;;;15.60;99.90;;;;;;5054299;28;20033;-82
2022/06/05 01:50:09;;;;;;;6.22;3.85;;;15.40;99.90;;;;;;5054037;28;20477;-82
2022/06/05 01:52:52;;;;;;;6.30;3.28;;;15.30;99.90;;;;;;5054102;28;20021;-82
2022/06/05 01:55:33;;;;;;;7.00;3.72;;;15.20;99.90;;;;;;5056677;28;20358;-82
2022/06/05 01:58:03;;;;;;;4.35;2.58;;;15.20;99.90;;;;;;5055614;28;20021;-82
2022/06/05 02:00:29;;;;;;;4.50;2.85;;;15.30;99.90;;;;;;5055184;28;20025;-82
2022/06/05 02:03:05;;;;;;;4.35;2.65;;;15.30;99.90;;;;;;5053284;28;20104;-82
2022/06/05 02:05:55;;;;;;;6.43;3.15;;;15.30;99.90;;;;;;5054009;28;20031;-82
2022/06/05 02:08:35;;;;;;;4.80;2.30;;;15.40;99.90;;;;;;5052259;28;20041;-82
2022/06/05 02:11:15;;;;;;;4.35;2.50;;;15.50;99.90;;;;;;5053599;28;20469;-82
2022/06/05 02:13:41;;;;;;;5.72;2.20;;;15.50;99.90;;;;;;5053502;28;20021;-82
2022/06/05 02:16:08;;;;;;;4.93;2.55;;;15.50;99.90;;;;;;5053821;28;20043;-82
2022/06/05 02:18:34;;;;;;;5.65;2.35;;;15.60;99.90;;;;;;5055139;28;20021;-82
2022/06/05 02:21:01;;;;;;;6.03;2.50;;;15.60;99.90;;;;;;5053851;28;20055;-82
2022/06/05 02:23:32;;;;;;;5.47;2.85;;;15.60;99.90;;;;;;5053512;28;20032;-82
2022/06/05 02:25:58;;;;;;;6.43;2.80;;;15.60;99.90;;;;;;5053514;28;20095;-82
2022/06/05 02:28:23;;;;;;;4.80;2.92;;;15.40;99.90;;;;;;5053446;28;20492;-82
2022/06/05 02:31:24;;;;;;;5.03;3.03;;;15.30;99.90;;;;;;5054613;28;20064;-82
2022/06/05 02:34:12;;;;;;;7.00;2.90;;;15.20;99.90;;;;;;5053367;28;20384;-82
2022/06/05 02:37:04;;;;;;;5.18;2.72;;;15.20;99.90;;;;;;5054729;28;20021;-82
2022/06/05 02:39:45;;;;;;;4.53;2.83;;;15.20;99.90;;;;;;5053335;28;20397;-82
2022/06/05 02:42:32;;;;;;;4.97;2.35;;;15.20;99.90;;;;;;5053230;28;20036;-82
2022/06/05 02:45:20;;;;;;;4.53;2.40;;;15.20;99.90;;;;;;5054455;28;20042;-82
2022/06/05 02:47:53;;;;;;;5.90;2.78;;;15.20;99.90;;;;;;5053224;28;20039;-82
2022/06/05 02:50:38;;;;;;;4.28;2.65;;;15.10;99.90;;;;;;5054714;28;20024;-82
2022/06/05 02:53:07;;;;;;;5.60;2.67;;;15.10;99.90;;;;;;5053062;28;20053;-82
2022/06/05 02:55:33;;;;;;;5.03;2.83;;;15.10;99.90;;;;;;5054233;28;20084;-82
2022/06/05 02:57:59;;;;;;;7.05;3.05;;;15.20;99.90;;;;;;5053268;28;20141;-82
2022/06/05 03:00:28;;;;;;;6.57;2.50;;;15.20;99.90;;;;;;5054150;28;20032;-82
2022/06/05 03:05:39;;;;;;;3.88;2.50;;;15.20;99.90;;;;;;5054920;28;20032;-82
2022/06/05 03:08:06;;;;;;;3.75;2.40;;;15.20;99.90;;;;;;5054208;28;20021;-82
2022/06/05 03:10:32;;;;;;;3.70;2.60;;;15.20;99.90;;;;;;5052771;28;20029;-82
2022/06/05 03:12:58;;;;;;;4.20;2.50;;;15.20;99.90;;;;;;5054140;28;20036;-82
2022/06/05 03:15:24;;;;;;;6.25;3.00;;;15.20;99.90;;;;;;5053338;28;20040;-82
2022/06/05 03:17:49;;;;;;;3.80;2.47;;;15.20;99.90;;;;;;5054081;28;20075;-82
2022/06/05 03:20:16;;;;;;;4.57;2.70;;;15.20;99.90;;;;;;5053927;28;20021;-82
2022/06/05 03:22:42;;;;;;;4.95;2.78;;;15.20;99.90;;;;;;5052666;28;20508;-82
2022/06/05 03:25:11;;;;;;;8.68;3.10;;;15.20;99.90;;;;;;5052915;28;20036;-82
2022/06/05 03:27:36;;;;;;;5.20;3.10;;;15.20;99.90;;;;;;5052470;28;20029;-82
2022/06/05 03:30:03;;;;;;;4.82;3.35;;;15.10;99.90;;;;;;5052774;28;20136;-82
2022/06/05 03:32:30;;;;;;;4.15;2.53;;;15.00;99.90;;;;;;5052493;28;20544;-82
2022/06/05 03:34:56;;;;;;;8.20;2.67;;;14.90;99.90;;;;;;5054067;28;20052;-82
2022/06/05 03:37:22;;;;;;;4.07;2.70;;;14.90;99.90;;;;;;5052529;28;20048;-83
2022/06/05 03:39:48;;;;;;;3.83;2.58;;;14.90;99.90;;;;;;5053913;28;20021;-82
2022/06/05 03:42:14;;;;;;;3.42;2.47;;;14.80;99.90;;;;;;5053858;28;20025;-82
2022/06/05 03:44:41;;;;;;;5.05;2.70;;;14.80;99.90;;;;;;5054107;28;20024;-82
2022/06/05 03:47:08;;;;;;;4.72;2.78;;;14.80;99.90;;;;;;5052491;28;20110;-82
2022/06/05 03:49:36;;;;;;;6.32;3.05;;;14.80;99.90;;;;;;5053803;28;20036;-82
2022/06/05 03:52:04;;;;;;;3.78;2.15;;;14.80;99.90;;;;;;5053598;28;20082;-82
2022/06/05 03:54:30;;;;;;;5.05;2.60;;;14.80;99.90;;;;;;5053788;28;20021;-82
2022/06/05 03:56:55;;;;;;;3.00;2.28;;;14.80;99.90;;;;;;5053828;28;20388;-82
2022/06/05 03:59:21;;;;;;;6.45;2.60;;;14.80;99.90;;;;;;5052557;28;20017;-82
2022/06/05 04:01:48;;;;;;;7.00;3.00;;;14.90;99.90;;;;;;5053911;28;20448;-82
2022/06/05 04:04:14;;;;;;;5.45;2.80;;;14.90;99.90;;;;;;5054049;28;20060;-82
2022/06/05 04:06:40;;;;;;;4.93;3.10;;;14.90;99.90;;;;;;5053599;28;20029;-82
2022/06/05 04:09:07;;;;;;;4.25;2.80;;;14.90;99.90;;;;;;5052332;28;20497;-82
2022/06/05 04:11:35;;;;;;;4.55;2.70;;;14.80;99.90;;;;;;5052238;28;20033;-82
2022/06/05 04:14:01;;;;;;;4.35;2.70;;;14.80;99.90;;;;;;5052406;28;20045;-82
2022/06/05 04:16:30;;;;;;;4.30;2.55;;;14.80;99.90;;;;;;5053682;28;20374;-82
2022/06/05 04:18:57;;;;;;;7.68;3.08;;;14.80;99.90;;;;;;5053706;28;20528;-82
2022/06/05 04:21:25;;;;;;;5.50;3.00;;;14.70;99.90;;;;;;5052283;28;20041;-82
2022/06/05 04:23:52;;;;;;;4.30;3.03;;;14.80;99.90;;;;;;5052441;28;20481;-82
2022/06/05 04:26:24;;;;;;;5.40;3.00;;;14.80;99.90;;;;;;5055233;28;20032;-82
2022/06/05 04:28:52;;;;;;;7.13;3.58;;;14.80;99.90;;;;;;5057565;28;20033;-82
2022/06/05 04:31:24;;;;;;;5.43;3.38;;;14.80;99.90;;;;;;5058707;28;20028;-82
2022/06/05 04:33:51;;;;;;;7.30;3.67;;;14.90;99.90;;;;;;5057684;28;20111;-82
2022/06/05 04:36:17;;;;;;;5.07;3.38;;;15.00;99.90;;;;;;5058105;28;20017;-82
2022/06/05 04:38:44;;;;;;;4.75;3.28;;;15.00;99.90;;;;;;5058232;28;20095;-82
2022/06/05 04:41:10;;;;;;;5.95;2.95;;;15.10;99.90;;;;;;5056706;28;20116;-81
2022/06/05 04:43:36;;;;;;;4.88;3.05;;;15.20;99.90;;;;;;5057458;28;20074;-82
2022/06/05 04:46:03;;;;;;;4.40;2.65;;;15.20;99.90;;;;;;5058387;28;20043;-82
2022/06/05 04:48:28;;;;;;;6.10;3.00;;;15.20;99.90;;;;;;5057961;28;20056;-82
2022/06/05 04:50:54;;;;;;;4.57;2.90;;;15.30;99.90;;;;;;5056549;28;20052;-81
2022/06/05 04:53:20;;;;;;;7.38;3.60;;;15.40;99.90;;;;;;5057962;28;20036;-82
2022/06/05 04:55:45;;;;;;;6.45;4.10;;;15.50;99.90;;;;;;5058468;28;20017;-82
2022/06/05 04:58:11;;;;;;;6.55;3.30;;;15.50;99.90;;;;;;5057816;28;20021;-81
2022/06/05 05:00:38;;;;;;;10.60;3.63;;;15.60;99.90;;;;;;5056588;28;20477;-82
2022/06/05 05:03:04;;;;;;;8.57;3.75;;;15.60;99.90;;;;;;5059023;28;20074;-84
2022/06/05 05:05:30;;;;;;;6.38;4.10;;;15.70;99.90;;;;;;5059922;28;20029;-84
2022/06/05 05:07:56;;;;;;;8.18;3.88;;;15.70;99.90;;;;;;5062031;28;20039;-84
2022/06/05 05:10:22;;;;;;;8.35;4.00;;;15.80;99.90;;;;;;5059781;28;20060;-84
2022/06/05 05:12:48;;;;;;;8.60;4.20;;;15.80;99.90;;;;;;5059075;28;20021;-84
2022/06/05 05:15:14;;;;;;;5.97;3.80;;;15.90;99.90;;;;;;5057241;28;20021;-83
2022/06/05 05:17:40;;;;;;;7.15;4.00;;;16.00;99.90;;;;;;5058027;28;20473;-83
2022/06/05 05:20:06;;;;;;;5.82;3.90;;;16.10;99.90;;;;;;5056353;28;20028;-82
2022/06/05 05:22:37;;;;;;;7.07;3.63;;;16.20;99.90;;;;;;5057882;28;20504;-83
2022/06/05 05:25:05;;;;;;;;;;;16.30;99.90;;;;;;5056324;28;20021;-82
2022/06/05 05:27:31;;;;;;;9.35;5.28;;;16.40;99.90;;;;;;5055893;28;19912;-83
2022/06/05 05:29:57;;;;;;;9.68;5.15;;;16.40;99.90;;;;;;5056977;28;20025;-82
2022/06/05 05:32:23;;;;;;;8.57;4.53;;;16.50;99.90;;;;;;5057022;28;20032;-83
2022/06/05 05:34:49;;;;;;;7.78;4.90;;;16.60;99.90;;;;;;5056634;28;20029;-83
2022/06/05 05:37:14;;;;;;;9.38;5.22;;;16.60;99.90;;;;;;5056874;28;20539;-81
2022/06/05 05:42:24;;;;;;;9.35;4.90;;;16.80;99.90;;;;;;5057339;28;20036;-83
2022/06/05 05:44:51;;;;;;;6.60;4.25;;;16.80;99.90;;;;;;5055044;28;20029;-83
2022/06/05 05:47:31;;;;;;;8.77;5.20;;;16.90;99.90;;;;;;5056432;28;20025;-83
2022/06/05 05:50:06;;;;;;;9.30;5.80;;;17.00;99.90;;;;;;5055359;28;20025;-82
2022/06/05 05:52:33;;;;;;;9.93;5.53;;;17.00;99.90;;;;;;5059593;28;20543;-82
2022/06/05 05:54:59;;;;;;;8.02;5.15;;;17.20;99.90;;;;;;5058745;28;20035;-81
2022/06/05 05:57:26;;;;;;;8.75;5.07;;;17.30;99.90;;;;;;5055306;28;20021;-83
2022/06/05 05:59:52;;;;;;;10.27;4.72;;;17.40;99.90;;;;;;5056545;28;20021;-83
2022/06/05 06:02:21;;;;;;;7.57;4.88;;;17.50;99.90;;;;;;5055537;28;20132;-83
2022/06/05 06:04:49;;;;;;;8.20;3.90;;;17.60;99.90;;;;;;5054931;28;20032;-83
2022/06/05 06:07:15;;;;;;;6.05;3.90;;;17.80;99.90;;;;;;5054673;28;20036;-84
2022/06/05 06:09:42;;;;;;;8.73;3.80;;;17.90;99.90;;;;;;5054664;28;20116;-84
2022/06/05 06:12:09;;;;;;;9.20;4.25;;;18.00;99.90;;;;;;5055804;28;20024;-84
2022/06/05 06:14:35;;;;;;;9.18;3.38;;;18.20;99.90;;;;;;5055502;28;20115;-84
2022/06/05 06:17:01;;;;;;;8.98;3.50;;;18.30;99.90;;;;;;5054308;28;20476;-84
2022/06/05 06:19:27;;;;;;;7.13;3.47;;;18.30;99.90;;;;;;5055506;28;20037;-83
2022/06/05 06:21:52;;;;;;;4.78;3.28;;;18.40;99.90;;;;;;5054345;28;20043;-82
2022/06/05 06:24:18;;;;;;;5.07;2.72;;;18.60;99.90;;;;;;5054766;28;20029;-82
2022/06/05 06:26:44;;;;;;;5.78;3.05;;;18.70;99.90;;;;;;5053993;28;20503;-82
2022/06/05 06:29:10;;;;;;;5.95;2.88;;;18.80;99.90;;;;;;5055374;28;20036;-82
2022/06/05 06:31:38;;;;;;;8.15;3.05;;;18.90;99.90;;;;;;5055559;28;20025;-82
2022/06/05 06:34:04;;;;;;;4.63;2.92;;;19.00;99.90;;;;;;5053533;28;20025;-83
2022/06/05 06:36:32;;;;;;;6.03;3.00;;;19.10;99.90;;;;;;5054658;28;20024;-83
2022/06/05 06:38:58;;;;;;;7.53;3.30;;;19.20;99.90;;;;;;5053547;28;20029;-82
2022/06/05 06:41:24;;;;;;;6.22;3.33;;;19.30;99.90;;;;;;5055122;28;20063;-82
2022/06/05 06:43:50;;;;;;;7.25;3.78;;;19.40;99.90;;;;;;5054670;28;20029;-82
2022/06/05 06:46:17;;;;;;;5.38;3.13;;;19.60;99.90;;;;;;5054433;28;20027;-82
2022/06/05 06:48:43;;;;;;;7.95;3.85;;;19.60;99.90;;;;;;5054541;28;20078;-82
2022/06/05 06:51:10;;;;;;;7.43;3.75;;;19.70;99.90;;;;;;5054618;28;20028;-83
2022/06/05 06:53:37;;;;;;;6.93;3.65;;;19.90;99.90;;;;;;5054238;28;20095;-83
2022/06/05 06:56:12;;;;;;;4.22;3.10;;;20.00;99.90;;;;;;5054482;28;20024;-82
2022/06/05 06:58:39;;;;;;;8.52;2.95;;;20.10;99.90;;;;;;5053014;28;20025;-83
2022/06/05 07:01:05;;;;;;;6.53;3.42;;;20.30;99.90;;;;;;5054137;28;20033;-83
2022/06/05 07:03:33;;;;;;;5.30;3.05;;;20.40;99.90;;;;;;5054115;28;20082;-82
2022/06/05 07:06:00;;;;;;;9.38;5.05;;;20.50;99.90;;;;;;5054287;28;20021;-83
2022/06/05 07:08:26;;;;;;;12.32;7.00;;;20.70;99.90;;;;;;5054289;28;20484;-83
2022/06/05 07:10:53;;;;;;;14.20;7.07;;;20.70;99.90;;;;;;5053945;28;20025;-82
2022/06/05 07:13:19;;;;;;;10.27;4.90;;;20.80;99.90;;;;;;5052536;28;20021;-83
2022/06/05 07:15:44;;;;;;;7.93;3.90;;;21.00;99.90;;;;;;5054124;28;20021;-83
2022/06/05 07:18:10;;;;;;;9.13;4.10;;;21.10;99.90;;;;;;5054170;28;20025;-83
2022/06/05 07:20:41;;;;;;;6.47;3.88;;;21.10;99.90;;;;;;5052447;28;20031;-83
2022/06/05 07:23:08;;;;;;;7.07;4.75;;;21.20;99.90;;;;;;5053637;28;20028;-83
2022/06/05 07:25:36;;;;;;;5.45;3.55;;;21.30;99.90;;;;;;5052472;28;20035;-83
2022/06/05 07:28:02;;;;;;;5.13;3.20;;;21.40;99.90;;;;;;5052271;28;20043;-83
2022/06/05 07:30:28;;;;;;;5.93;3.60;;;21.60;99.90;;;;;;5053676;28;20025;-83
2022/06/05 07:32:54;;;;;;;6.10;3.40;;;21.70;99.90;;;;;;5051210;28;20086;-83
2022/06/05 07:35:20;;;;;;;6.10;3.67;;;21.80;99.90;;;;;;5053663;28;20504;-83
2022/06/05 07:37:46;;;;;;;7.07;4.00;;;21.90;99.90;;;;;;5053660;28;20025;-83
2022/06/05 07:40:12;;;;;;;8.43;4.30;;;22.10;99.90;;;;;;5053978;28;20426;-83
2022/06/05 07:42:39;;;;;;;10.13;4.10;;;22.20;99.90;;;;;;5054265;28;20044;-83
2022/06/05 07:45:06;;;;;;;13.38;5.50;;;22.30;99.90;;;;;;5052156;28;20104;-83
2022/06/05 07:47:32;;;;;;;9.80;4.78;;;22.40;99.90;;;;;;5052257;28;20025;-83
2022/06/05 07:49:58;;;;;;;9.27;3.83;;;22.50;99.90;;;;;;5052038;28;20079;-83
2022/06/05 07:55:09;;;;;;;7.30;3.42;;;22.80;99.90;;;;;;5053419;28;20074;-83
2022/06/05 07:57:35;;;;;;;6.93;3.42;;;22.90;99.90;;;;;;5053153;28;20100;-83
2022/06/05 08:00:00;;;;;;;7.05;3.67;;;23.00;99.60;;;;;;5051984;28;20111;-83
2022/06/05 08:02:28;;;;;;;6.85;3.85;;;23.20;99.70;;;;;;5056047;28;20029;-82
2022/06/05 08:04:55;;;;;;;8.25;4.22;;;23.30;99.30;;;;;;5057214;28;20032;-82
2022/06/05 08:07:31;;;;;;;6.78;3.92;;;23.40;98.80;;;;;;5057341;28;20017;-82
2022/06/05 08:09:59;;;;;;;7.10;3.83;;;23.50;99.10;;;;;;5057526;28;20033;-82
2022/06/05 08:12:28;;;;;;;8.25;4.30;;;23.70;99.60;;;;;;5057162;28;20568;-82
2022/06/05 08:14:54;;;;;;;7.70;3.55;;;23.80;98.90;;;;;;5056935;28;20028;-83
2022/06/05 08:17:23;;;;;;;7.32;3.92;;;23.90;98.50;;;;;;5056884;28;20053;-82
2022/06/05 08:19:49;;;;;;;5.15;3.50;;;24.00;98.50;;;;;;5056882;28;20102;-82
2022/06/05 08:22:17;;;;;;;8.68;3.42;;;24.10;98.40;;;;;;5056884;28;20056;-82
2022/06/05 08:24:44;;;;;;;4.93;3.30;;;24.30;97.50;;;;;;5055533;28;20074;-83
2022/06/05 08:27:12;;;;;;;7.45;3.33;;;24.40;97.80;;;;;;5056845;28;20045;-83
2022/06/05 08:29:39;;;;;;;8.70;4.50;;;24.50;96.70;;;;;;5056067;28;20386;-83
2022/06/05 08:32:05;;;;;;;9.10;5.05;;;24.60;96.60;;;;;;5055476;28;20025;-82
2022/06/05 08:34:31;;;;;;;8.38;4.28;;;24.60;96.40;;;;;;5056571;28;20071;-82
2022/06/05 08:42:58;;;;;;;7.65;5.35;;;24.90;95.00;;;;;;5057262;28;20123;-82
2022/06/05 08:46:02;;;;;;;8.65;4.78;;;25.00;93.90;;;;;;5056549;28;20051;-82
2022/06/05 08:48:32;;;;;;;8.35;5.40;;;25.20;94.50;;;;;;5056470;28;20078;-83
2022/06/05 08:51:12;;;;;;;10.93;5.50;;;25.40;94.20;;;;;;5056456;28;20021;-82
2022/06/05 08:53:57;;;;;;;8.88;5.68;;;25.50;95.00;;;;;;5056961;28;20024;-82
2022/06/05 08:56:46;;;;;;;8.25;5.07;;;25.60;94.40;;;;;;5055509;28;20040;-82
2022/06/05 08:59:12;;;;;;;8.90;4.53;;;25.70;93.50;;;;;;5056259;28;20070;-82
2022/06/05 09:01:47;;;;;;;8.68;4.50;;;25.90;93.90;;;;;;5054941;28;20112;-83
2022/06/05 09:04:23;;;;;;;9.63;4.53;;;26.00;93.30;;;;;;5056292;28;20048;-82
2022/06/05 09:06:53;;;;;;;8.52;4.45;;;26.10;91.40;;;;;;5056508;28;20027;-82
2022/06/05 09:09:27;;;;;;;;;;;26.20;90.20;;;;;;5055423;28;20032;-82
2022/06/05 09:12:06;;;;;;;10.93;3.85;;;26.40;92.30;;;;;;5056401;28;19909;-82
2022/06/05 09:14:52;;;;;;;9.52;3.45;;;26.40;91.50;;;;;;5055162;28;20500;-82
2022/06/05 09:17:20;;;;;;;11.27;3.97;;;26.60;91.20;;;;;;5056691;28;20052;-82
2022/06/05 09:19:50;;;;;;;9.05;3.75;;;26.70;90.60;;;;;;5056050;28;20043;-82
2022/06/05 09:22:49;;;;;;;8.27;3.90;;;26.90;88.90;;;;;;5056290;28;20465;-82
2022/06/05 09:25:32;;;;;;;10.80;4.05;;;27.00;86.80;;;;;;5056464;28;20115;-82
2022/06/05 09:28:24;;;;;;;9.90;3.08;;;27.00;88.40;;;;;;5056401;28;20104;-82
2022/06/05 09:31:00;;;;;;;6.28;2.70;;;27.10;88.60;;;;;;5056647;28;20107;-82
2022/06/05 09:33:34;;;;;;;3.90;2.30;;;27.20;89.80;;;;;;5056025;28;20474;-82
2022/06/05 09:36:03;;;;;;;;;;;27.30;90.80;;;;;;5055499;28;19916;-82
2022/06/05 09:38:29;;;;;;;;;;;27.30;87.90;;;;;;5055045;28;19912;-82
2022/06/05 09:41:00;;;;;;;;;;;27.40;88.50;;;;;;5055602;28;19909;-82
2022/06/05 09:43:38;;;;;;;;;;;27.50;82.50;;;;;;5055316;28;19912;-82
2022/06/05 09:46:21;;;;;;;;;;;27.40;81.30;;;;;;5054622;28;19935;-82
2022/06/05 09:48:58;;;;;;;7.20;2.60;;;27.40;82.40;;;;;;5056351;28;24147;-82
2022/06/05 09:51:24;;;;;;;8.10;3.07;;;27.30;82.00;;;;;;5056610;28;20345;-82
2022/06/05 09:53:56;;;;;;;9.30;2.80;;;27.30;82.20;;;;;;5054583;28;20226;-82
2022/06/05 09:59:39;;;;;;;7.30;2.70;;;27.40;80.80;;;;;;5055385;28;20401;-81
2022/06/05 10:02:07;;;;;;;6.80;2.58;;;27.40;80.20;;;;;;5054658;28;19904;-81
2022/06/05 10:04:34;;;;;;;7.65;2.72;;;27.40;81.20;;;;;;5056106;28;20025;-81
2022/06/05 10:07:06;;;;;;;7.70;2.90;;;27.30;80.60;;;;;;5055872;28;20082;-81
2022/06/05 10:09:34;;;;;;;7.07;3.00;;;27.30;81.20;;;;;;5055023;28;20028;-81
2022/06/05 10:12:07;;;;;;;7.20;2.78;;;27.30;80.50;;;;;;5055952;28;20025;-81
2022/06/05 10:14:54;;;;;;;9.95;2.80;;;27.40;80.40;;;;;;5055675;28;20366;-82
2022/06/05 10:17:41;;;;;;;6.10;2.55;;;27.50;80.10;;;;;;5055958;28;20021;-82
2022/06/05 10:20:22;;;;;;;8.13;3.10;;;27.40;81.90;;;;;;5055640;28;20446;-82
2022/06/05 10:22:48;;;;;;;8.25;3.00;;;27.40;81.80;;;;;;5055541;28;20013;-82
2022/06/05 10:25:16;;;;;;;11.02;3.25;;;27.40;82.00;;;;;;5058425;28;20047;-82
2022/06/05 10:27:54;;;;;;;7.00;2.60;;;27.30;82.00;;;;;;5060581;28;20029;-82
2022/06/05 10:30:26;;;;;;;9.52;3.00;;;27.10;81.40;;;;;;5054723;28;20477;-82
2022/06/05 10:33:11;;;;;;;6.25;3.10;;;27.00;82.40;;;;;;5055462;28;20358;-82
2022/06/05 10:35:55;;;;;;;6.75;3.05;;;26.80;82.90;;;;;;5053882;28;20028;-82
2022/06/05 10:38:42;;;;;;;7.45;3.05;;;26.60;83.30;;;;;;5055555;28;20025;-81
2022/06/05 10:41:22;;;;;;;10.50;3.20;;;26.40;83.00;;;;;;5055443;28;20025;-81
2022/06/05 10:44:09;;;;;;;7.20;2.85;;;26.20;82.30;;;;;;5055169;28;20740;-82
2022/06/05 10:46:39;;;;;;;11.55;3.47;;;26.00;83.50;;;;;;5055598;28;20029;-81
2022/06/05 10:49:50;;;;;;;13.23;4.03;;;26.20;85.60;;;;;;5056010;28;20017;-81
2022/06/05 10:52:28;;;;;;;5.95;3.05;;;26.50;84.00;;;;;;5055161;28;20078;-82
2022/06/05 10:55:20;;;;;;;10.20;5.45;;;26.70;83.80;;;;;;5054312;28;20028;-81
2022/06/05 10:58:30;;;;;;;8.07;3.70;;;26.90;83.20;;;;;;5055067;28;20040;-81
2022/06/05 11:01:24;;;;;;;9.95;4.50;;;27.00;81.80;;;;;;5049496;28;20095;-82
2022/06/05 11:04:09;;;;;;;19.20;10.40;;;27.20;82.70;;;;;;5054700;28;20100;-81
2022/06/05 11:06:55;;;;;;;10.37;3.57;;;27.10;81.40;;;;;;5053417;28;20035;-82
2022/06/05 11:09:46;;;;;;;8.43;3.08;;;26.90;82.00;;;;;;5034121;28;20128;-82
2022/06/05 11:15:36;;;;;;;12.05;3.45;;;27.00;83.00;;;;;;5054713;28;19951;-82
2022/06/05 11:18:14;;;;;;;9.18;3.50;;;26.80;82.80;;;;;;5055118;28;20028;-81
2022/06/05 11:20:43;;;;;;;6.13;3.15;;;26.90;84.30;;;;;;5056487;28;20029;-82
2022/06/05 11:23:18;;;;;;;9.18;3.20;;;27.00;84.50;;;;;;5055799;28;20029;-82
2022/06/05 11:25:59;;;;;;;;;;;27.20;84.20;;;;;;5056906;28;20025;-82
2022/06/05 11:28:46;;;;;;;13.00;4.00;;;27.40;84.00;;;;;;5056357;28;19911;-83
2022/06/05 11:31:23;;;;;;;7.90;3.33;;;27.50;82.30;;;;;;5055722;28;20352;-82
2022/06/05 11:34:04;;;;;;;9.38;3.50;;;27.50;83.10;;;;;;5053732;28;20025;-82
2022/06/05 11:36:37;;;;;;;9.07;3.38;;;27.40;84.00;;;;;;5053816;28;20024;-82
2022/06/05 11:39:06;;;;;;;9.95;3.15;;;27.50;82.70;;;;;;5054198;28;20013;-81
2022/06/05 11:41:55;;;;;;;8.68;3.00;;;27.30;82.60;;;;;;5053928;28;20426;-82
2022/06/05 11:44:35;;;;;;;5.38;3.08;;;27.30;83.40;;;;;;5054057;28;20461;-82
2022/06/05 11:47:04;;;;;;;12.17;3.77;;;27.30;84.00;;;;;;5055138;28;20037;-82
2022/06/05 11:49:54;;;;;;;8.45;3.40;;;27.50;82.30;;;;;;5054422;28;20037;-85
2022/06/05 11:52:42;;;;;;;10.40;3.35;;;27.30;82.00;;;;;;5054534;28;19919;-86
2022/06/05 11:55:11;;;;;;;10.90;3.58;;;27.20;84.80;;;;;;5057534;28;20033;-87
2022/06/05 11:57:49;;;;;;;6.82;3.55;;;27.10;85.00;;;;;;5056492;28;20067;-86
2022/06/05 12:00:24;;;;;;;5.40;3.03;;;27.00;85.00;;;;;;5054932;28;20516;-84
2022/06/05 12:02:59;;;;;;;7.03;3.53;;;26.90;85.20;;;;;;5054250;28;20047;-85
2022/06/05 12:06:01;;;;;;;9.63;3.33;;;26.90;86.10;;;;;;5055345;28;20013;-83
2022/06/05 12:08:39;;;;;;;6.65;3.42;;;26.90;86.40;;;;;;5040729;28;19905;-85
2022/06/05 12:11:07;;;;;;;6.25;3.55;;;26.90;86.40;;;;;;5034850;28;20033;-85
2022/06/05 12:13:38;;;;;;;7.47;3.72;;;26.80;86.60;;;;;;5034803;28;20045;-84
2022/06/05 12:16:13;;;;;;;10.50;4.15;;;26.80;86.60;;;;;;5052493;28;20084;-84
2022/06/05 12:18:47;;;;;;;8.65;3.50;;;26.90;88.50;;;;;;5054239;28;20021;-84
2022/06/05 12:21:21;;;;;;;9.10;3.33;;;26.90;85.80;;;;;;5054223;28;20175;-83
2022/06/05 12:24:00;;;;;;;8.50;3.67;;;26.90;86.90;;;;;;5053794;28;20032;-84
2022/06/05 12:27:10;;;;;;;8.23;3.65;;;27.00;86.40;;;;;;5054017;28;20025;-84
2022/06/05 12:29:50;;;;;;;6.10;3.42;;;26.70;86.90;;;;;;5033421;28;20033;-83
2022/06/05 12:32:31;;;;;;;7.60;3.90;;;26.60;88.70;;;;;;5052468;28;20025;-84
2022/06/05 12:35:15;;;;;;;7.97;3.60;;;26.50;88.00;;;;;;5053581;28;20003;-85
2022/06/05 12:38:09;;;;;;;8.65;3.38;;;26.60;88.20;;;;;;5053642;28;20028;-85
2022/06/05 12:40:40;;;;;;;7.63;3.80;;;26.60;88.50;;;;;;5052004;28;20033;-84
2022/06/05 12:43:23;;;;;;;6.97;3.57;;;26.50;89.20;;;;;;5053654;28;20029;-85
2022/06/05 12:45:56;;;;;;;10.75;3.85;;;26.40;88.90;;;;;;5053348;28;20086;-84
2022/06/05 12:48:24;;;;;;;8.93;3.58;;;26.40;89.10;;;;;;5056032;28;20137;-84
2022/06/05 12:51:12;;;;;;;9.15;3.58;;;26.30;88.40;;;;;;5056947;28;20078;-84
2022/06/05 12:54:13;;;;;;;7.63;3.85;;;26.40;87.70;;;;;;5057276;28;20025;-84
2022/06/05 12:56:50;;;;;;;;;;;26.30;88.00;;;;;;5056851;28;20016;-84
2022/06/05 12:59:45;;;;;;;8.93;4.05;;;26.40;88.10;;;;;;5056943;28;20005;-84
2022/06/05 13:02:27;;;;;;;9.57;4.00;;;26.30;87.60;;;;;;5057184;28;20025;-85
2022/06/05 13:05:16;;;;;;;6.38;3.28;;;26.20;87.90;;;;;;5055391;28;20032;-84
2022/06/05 13:07:54;;;;;;;7.63;3.60;;;26.20;88.70;;;;;;5055750;28;20056;-84
2022/06/05 13:10:25;;;;;;;11.00;3.50;;;26.10;88.70;;;;;;5059161;28;20045;-83
2022/06/05 13:12:59;;;;;;;8.18;3.47;;;26.10;89.60;;;;;;5053654;28;20025;-84
2022/06/05 13:15:38;;;;;;;9.90;3.70;;;26.10;89.50;;;;;;5052249;28;20064;-84
2022/06/05 13:18:29;;;;;;;9.55;3.70;;;26.30;89.20;;;;;;5052631;28;19940;-84
2022/06/05 13:21:10;;;;;;;7.10;4.30;;;26.70;86.80;;;;;;5053952;28;20115;-85
2022/06/05 13:23:54;;;;;;;7.85;3.60;;;26.70;87.60;;;;;;5037652;28;20032;-85
2022/06/05 13:26:37;;;;;;;;;;;26.90;88.00;;;;;;5035559;28;20039;-85
2022/06/05 13:29:11;;;;;;;;;;;27.00;87.50;;;;;;5034345;28;20040;-85
2022/06/05 13:31:57;;;;;;;8.80;3.90;;;27.00;88.10;;;;;;5035460;28;20104;-85
2022/06/05 13:34:22;;;;;;;;;;;26.90;87.30;;;;;;5035699;28;20022;-85
2022/06/05 13:37:03;;;;;;;9.40;3.85;;;26.80;88.50;;;;;;5054193;28;20129;-86
2022/06/05 13:39:54;;;;;;;6.30;3.40;;;26.80;89.80;;;;;;5055953;28;24070;-86
2022/06/05 13:42:22;;;;;;;7.77;3.60;;;27.00;89.10;;;;;;5054370;28;20432;-85